Terminal Aerodrome Forecast
Issued by NWS Tulsa, OK

Home | Current Version | Previous Version | Text Only | Print | Product List | Glossary On
Versions: 1 2 3 4 5 6 7 8 9 10 11 12
000
FTUS44 KTSA 021100 RRA
TAFFSM
TAF
KFSM 021149Z 0212/0312 07003KT P6SM BKN030 OVC250
     FM021500 15009KT P6SM BKN040
     FM022100 20010KT P6SM BKN250
      TEMPO 0221/0301 2SM TSRA BKN025CB
     FM030300 30011KT P6SM OVC025
     FM030600 29009KT P6SM VCSH OVC015=

USA.gov is the U.S. government's official web portal to all federal, state and local government web resources and services.